createdAt,value
2022-11-24T00:02:56.604Z,13.37
2022-11-24T00:06:12.013Z,13.46
2022-11-24T00:09:17.319Z,13.53
2022-11-24T00:12:20.134Z,13.08
2022-11-24T00:15:22.671Z,13.40
2022-11-24T00:18:24.692Z,13.44
2022-11-24T00:21:28.464Z,13.55
2022-11-24T00:24:32.428Z,13.45
2022-11-24T00:27:35.391Z,13.49
2022-11-24T00:30:39.269Z,13.57
2022-11-24T00:33:41.466Z,13.55
2022-11-24T00:36:44.223Z,13.48
2022-11-24T00:39:46.408Z,13.41
2022-11-24T00:42:48.632Z,13.34
2022-11-24T00:45:50.909Z,13.44
2022-11-24T00:48:54.095Z,13.45
2022-11-24T00:51:56.992Z,13.41
2022-11-24T00:54:59.365Z,13.25
2022-11-24T00:58:01.583Z,13.16
2022-11-24T01:01:25.819Z,13.27
2022-11-24T01:04:28.432Z,13.27
2022-11-24T01:07:31.202Z,13.31
2022-11-24T01:10:33.720Z,13.37
2022-11-24T01:13:35.907Z,13.46
2022-11-24T01:16:38.959Z,13.31
2022-11-24T01:19:41.399Z,13.44
2022-11-24T01:22:47.159Z,13.19
2022-11-24T01:25:49.748Z,13.27
2022-11-24T01:28:56.573Z,13.11
2022-11-24T01:31:58.636Z,13.32
2022-11-24T01:35:01.043Z,13.47
2022-11-24T01:38:03.531Z,13.49
2022-11-24T01:41:22.739Z,13.35
2022-11-24T01:44:31.774Z,13.16
2022-11-24T01:47:43.147Z,13.22
2022-11-24T01:50:49.818Z,13.12
2022-11-24T01:54:01.159Z,13.13
2022-11-24T01:57:13.389Z,13.14
2022-11-24T02:00:20.474Z,13.02
2022-11-24T02:03:30.856Z,13.14
2022-11-24T02:07:25.088Z,13.14
2022-11-24T02:10:30.007Z,13.17
2022-11-24T02:17:41.375Z,13.13
2022-11-24T02:20:45.878Z,13.07
2022-11-24T02:24:17.022Z,13.02
2022-11-24T02:27:23.240Z,12.87
2022-11-24T02:30:25.360Z,13.02
2022-11-24T02:33:27.848Z,12.99
2022-11-24T02:36:30.668Z,13.00
2022-11-24T02:39:32.838Z,12.77
2022-11-24T02:42:43.319Z,13.04
2022-11-24T02:45:48.401Z,13.23
2022-11-24T02:52:18.608Z,12.87
2022-11-24T03:08:56.198Z,12.84
2022-11-24T03:17:00.997Z,13.05
2022-11-24T03:20:28.411Z,13.00
2022-11-24T03:24:06.253Z,13.04
2022-11-24T04:26:47.890Z,12.96
2022-11-24T04:34:57.447Z,12.97
2022-11-24T04:38:03.120Z,13.09
2022-11-24T04:41:05.753Z,12.93
2022-11-24T04:44:07.814Z,13.16
2022-11-24T04:47:21.059Z,13.76
2022-11-24T04:50:24.799Z,13.69
2022-11-24T04:53:30.193Z,13.58
2022-11-24T04:57:31.030Z,13.47
2022-11-24T05:00:33.150Z,12.87
2022-11-24T05:03:36.685Z,12.97
2022-11-24T05:06:39.087Z,13.49
2022-11-24T05:10:00.865Z,13.46
2022-11-24T05:13:13.749Z,13.74
2022-11-24T05:16:15.994Z,13.81
2022-11-24T05:19:19.130Z,13.86
2022-11-24T05:22:21.056Z,13.93
2022-11-24T05:25:23.436Z,13.88
2022-11-24T05:28:25.729Z,13.76
2022-11-24T05:31:28.086Z,13.68
2022-11-24T05:34:36.593Z,13.81
2022-11-24T05:41:05.727Z,14.51
2022-11-24T05:44:07.977Z,15.06
2022-11-24T05:51:39.618Z,14.56
2022-11-24T05:54:50.438Z,14.26
2022-11-24T05:58:00.489Z,14.42
2022-11-24T06:01:06.370Z,14.73
2022-11-24T06:04:08.424Z,14.48
2022-11-24T06:07:12.743Z,14.43
2022-11-24T06:10:18.513Z,14.45
2022-11-24T06:13:22.611Z,14.26
2022-11-24T06:16:24.972Z,14.23
2022-11-24T06:19:27.050Z,14.07
2022-11-24T06:22:29.352Z,14.14
2022-11-24T06:25:31.385Z,14.03
2022-11-24T06:28:33.455Z,13.95
2022-11-24T06:31:35.799Z,13.88
2022-11-24T06:34:38.038Z,14.10
2022-11-24T06:37:41.975Z,14.43
2022-11-24T06:40:44.145Z,14.78
2022-11-24T06:43:53.896Z,14.55
2022-11-24T06:46:59.859Z,14.61
2022-11-24T06:50:02.281Z,15.31
2022-11-24T06:53:04.460Z,15.15
2022-11-24T06:56:15.344Z,15.11
2022-11-24T06:59:21.221Z,15.76
2022-11-24T07:02:24.675Z,16.96
2022-11-24T07:05:27.475Z,15.95
2022-11-24T07:08:29.615Z,15.52
2022-11-24T07:11:31.870Z,14.89
2022-11-24T07:14:34.098Z,14.82
2022-11-24T07:17:38.113Z,14.77
2022-11-24T07:20:40.444Z,14.79
2022-11-24T07:23:42.604Z,14.76
2022-11-24T07:26:45.018Z,14.63
2022-11-24T07:29:47.291Z,14.18
2022-11-24T07:32:49.376Z,14.22
2022-11-24T07:35:52.413Z,13.96
2022-11-24T07:38:54.431Z,13.78
2022-11-24T07:41:56.479Z,14.03
2022-11-24T07:44:58.463Z,14.73
2022-11-24T07:48:00.480Z,14.76
2022-11-24T07:51:04.696Z,15.04
2022-11-24T07:54:07.741Z,15.28
2022-11-24T07:57:09.965Z,15.28
2022-11-24T08:00:13.058Z,15.45
2022-11-24T08:03:15.917Z,15.49
2022-11-24T08:06:28.507Z,15.42
2022-11-24T08:09:31.058Z,15.51
2022-11-24T08:12:34.402Z,15.57
2022-11-24T08:15:37.675Z,15.38
2022-11-24T08:18:39.828Z,15.36
2022-11-24T08:21:41.933Z,15.39
2022-11-24T08:24:48.352Z,15.24
2022-11-24T08:27:50.395Z,15.38
2022-11-24T08:30:52.695Z,15.18
2022-11-24T08:33:56.277Z,15.12
2022-11-24T08:37:00.630Z,15.11
2022-11-24T08:40:02.661Z,15.07
2022-11-24T08:43:04.807Z,15.11
2022-11-24T08:46:10.450Z,15.02
2022-11-24T08:49:14.801Z,15.16
2022-11-24T08:52:17.584Z,15.38
2022-11-24T08:55:20.005Z,15.51
2022-11-24T08:58:22.315Z,15.72
2022-11-24T09:01:26.767Z,15.94
2022-11-24T09:04:29.076Z,15.94
2022-11-24T09:07:31.168Z,15.95
2022-11-24T09:10:33.476Z,15.90
2022-11-24T09:13:36.526Z,16.15
2022-11-24T09:16:38.736Z,16.26
2022-11-24T09:19:40.754Z,16.19
2022-11-24T09:22:43.582Z,16.86
2022-11-24T09:25:45.701Z,16.95
2022-11-24T09:28:48.513Z,16.82
2022-11-24T09:31:51.018Z,16.75
2022-11-24T09:34:52.960Z,16.64
2022-11-24T09:37:55.035Z,16.73
2022-11-24T09:41:26.089Z,16.79
2022-11-24T09:44:49.614Z,16.99
2022-11-24T09:47:59.581Z,17.67
2022-11-24T09:51:05.319Z,18.30
2022-11-24T09:54:21.852Z,18.30
2022-11-24T09:57:27.063Z,18.23
2022-11-24T10:00:30.386Z,18.29
2022-11-24T10:03:42.113Z,18.23
2022-11-24T10:07:19.305Z,18.44
2022-11-24T10:10:29.366Z,18.28
2022-11-24T10:13:31.268Z,18.41
2022-11-24T10:16:48.231Z,18.40
2022-11-24T10:19:58.160Z,17.72
2022-11-24T10:23:18.854Z,16.50
2022-11-24T10:26:37.082Z,15.93
2022-11-24T10:29:42.548Z,15.55
2022-11-24T10:32:48.342Z,15.37
2022-11-24T10:35:53.773Z,15.39
2022-11-24T10:39:28.965Z,15.31
2022-11-24T10:42:35.474Z,15.12
2022-11-24T10:45:40.231Z,14.99
2022-11-24T10:48:49.905Z,14.89
2022-11-24T10:52:15.317Z,14.90
2022-11-24T10:55:17.497Z,14.84
2022-11-24T10:58:25.063Z,14.87
2022-11-24T11:01:37.552Z,14.86
2022-11-24T11:04:39.687Z,14.79
2022-11-24T11:07:41.788Z,14.69
2022-11-24T11:10:45.527Z,14.70
2022-11-24T11:13:56.847Z,14.63
2022-11-24T11:17:03.011Z,14.84
2022-11-24T11:20:32.181Z,14.85
2022-11-24T11:23:36.118Z,14.95
2022-11-24T11:26:39.462Z,14.92
2022-11-24T11:36:27.397Z,14.93
2022-11-24T11:39:35.843Z,14.93
2022-11-24T11:43:05.989Z,15.21
2022-11-24T11:46:08.125Z,15.01
2022-11-24T11:49:13.759Z,14.90
2022-11-24T11:52:43.789Z,15.08
2022-11-24T11:56:14.462Z,14.82
2022-11-24T11:59:19.095Z,14.64
2022-11-24T12:02:56.443Z,14.49
2022-11-24T12:06:16.697Z,14.56
2022-11-24T12:09:27.833Z,14.34
2022-11-24T12:13:06.721Z,14.42
2022-11-24T12:16:30.192Z,14.32
2022-11-24T12:19:46.895Z,14.34
2022-11-24T12:23:18.155Z,14.43
2022-11-24T12:26:57.818Z,14.33
2022-11-24T12:30:13.557Z,14.30
2022-11-24T12:33:31.296Z,13.95
2022-11-24T12:36:49.915Z,14.54
2022-11-24T12:40:31.434Z,14.74
2022-11-24T12:43:39.805Z,14.76
2022-11-24T12:47:17.983Z,14.53
2022-11-24T12:50:24.610Z,14.24
2022-11-24T12:53:34.093Z,15.28
2022-11-24T12:57:00.169Z,15.77
2022-11-24T13:00:07.286Z,15.91
2022-11-24T13:03:30.358Z,16.26
2022-11-24T13:06:47.468Z,16.66
2022-11-24T13:10:54.683Z,16.83
2022-11-24T13:13:59.835Z,17.13
2022-11-24T13:17:36.330Z,17.50
2022-11-24T13:20:41.767Z,17.68
2022-11-24T13:23:44.664Z,17.78
2022-11-24T13:26:52.268Z,17.69
2022-11-24T13:29:55.485Z,17.83
2022-11-24T13:33:27.317Z,18.03
2022-11-24T13:36:34.644Z,17.92
2022-11-24T13:39:53.228Z,17.82
2022-11-24T13:42:58.479Z,17.39
2022-11-24T13:46:01.851Z,17.18
2022-11-24T13:49:14.491Z,15.90
2022-11-24T13:52:36.843Z,15.39
2022-11-24T13:55:41.158Z,17.02
2022-11-24T13:58:56.722Z,18.74
2022-11-24T14:01:59.187Z,19.60
2022-11-24T14:05:01.895Z,20.41
2022-11-24T14:08:07.275Z,20.23
2022-11-24T14:11:16.934Z,20.70
2022-11-24T14:14:21.245Z,21.10
2022-11-24T14:17:29.884Z,20.03
2022-11-24T14:20:33.258Z,21.07
2022-11-24T14:23:42.309Z,21.27
2022-11-24T14:26:47.132Z,21.11
2022-11-24T14:30:15.529Z,21.62
2022-11-24T14:33:20.331Z,21.58
2022-11-24T14:36:22.356Z,21.32
2022-11-24T14:39:26.731Z,21.62
2022-11-24T14:42:28.778Z,21.33
2022-11-24T14:45:37.771Z,21.86
2022-11-24T14:48:50.016Z,21.83
2022-11-24T14:52:04.194Z,21.69
2022-11-24T14:55:22.454Z,21.69
2022-11-24T14:58:37.695Z,21.63
2022-11-24T15:01:42.875Z,22.08
2022-11-24T15:05:03.590Z,22.11
2022-11-24T15:08:06.309Z,21.89
2022-11-24T15:11:08.611Z,22.47
2022-11-24T15:14:46.173Z,22.03
2022-11-24T15:17:52.508Z,22.78
2022-11-24T15:20:55.116Z,22.20
2022-11-24T15:24:17.826Z,22.52
2022-11-24T15:27:19.899Z,22.79
2022-11-24T15:30:21.895Z,22.04
2022-11-24T15:33:25.004Z,22.01
2022-11-24T15:36:27.868Z,20.03
2022-11-24T15:39:29.949Z,19.41
2022-11-24T15:42:32.000Z,19.01
2022-11-24T15:45:34.825Z,18.68
2022-11-24T15:48:38.784Z,18.58
2022-11-24T15:51:46.081Z,18.30
2022-11-24T15:54:54.194Z,18.42
2022-11-24T15:57:56.388Z,18.02
2022-11-24T16:00:58.679Z,17.83
2022-11-24T16:04:01.884Z,17.67
2022-11-24T16:07:07.004Z,17.44
2022-11-24T16:10:24.007Z,17.42
2022-11-24T16:13:26.142Z,17.13
2022-11-24T16:16:28.284Z,16.94
2022-11-24T16:19:37.343Z,16.95
2022-11-24T16:22:42.692Z,16.72
2022-11-24T16:25:44.737Z,16.52
2022-11-24T16:28:46.839Z,16.22
2022-11-24T16:31:52.731Z,16.00
2022-11-24T16:34:54.889Z,15.95
2022-11-24T16:37:57.325Z,15.91
2022-11-24T16:41:02.937Z,15.79
2022-11-24T16:44:05.121Z,15.55
2022-11-24T16:47:11.949Z,15.56
2022-11-24T16:50:14.323Z,15.48
2022-11-24T16:53:16.495Z,15.44
2022-11-24T16:56:18.611Z,15.30
2022-11-24T16:59:20.665Z,15.19
2022-11-24T17:02:23.000Z,15.14
2022-11-24T17:05:25.810Z,15.14
2022-11-24T17:08:34.035Z,15.14
2022-11-24T17:11:36.426Z,15.15
2022-11-24T17:14:38.577Z,15.16
2022-11-24T17:18:01.312Z,15.12
2022-11-24T17:21:09.683Z,15.27
2022-11-24T17:24:17.631Z,15.57
2022-11-24T17:27:19.979Z,15.62
2022-11-24T17:30:22.384Z,15.96
2022-11-24T17:33:24.619Z,16.17
2022-11-24T17:36:27.583Z,16.03
2022-11-24T17:39:29.943Z,15.77
2022-11-24T17:42:31.944Z,15.69
2022-11-24T17:45:34.139Z,15.68
2022-11-24T17:48:36.883Z,15.73
2022-11-24T17:51:39.009Z,15.80
2022-11-24T17:54:56.566Z,15.71
2022-11-24T17:57:59.410Z,15.76
2022-11-24T18:01:01.934Z,15.70
2022-11-24T18:04:04.406Z,15.66
2022-11-24T18:07:06.489Z,15.60
2022-11-24T18:10:08.957Z,15.55
2022-11-24T18:13:27.434Z,15.52
2022-11-24T18:16:35.405Z,15.70
2022-11-24T18:19:37.703Z,15.61
2022-11-24T18:23:04.429Z,16.43
2022-11-24T18:26:05.348Z,16.34
2022-11-24T18:29:08.139Z,15.46
2022-11-24T18:32:10.362Z,15.29
2022-11-24T18:35:12.520Z,15.18
2022-11-24T18:38:14.653Z,14.98
2022-11-24T18:41:18.154Z,15.24
2022-11-24T18:44:20.751Z,15.12
2022-11-24T18:47:25.683Z,15.17
2022-11-24T18:50:27.781Z,14.95
2022-11-24T18:53:29.942Z,14.86
2022-11-24T18:56:34.542Z,14.98
2022-11-24T18:59:37.297Z,14.90
2022-11-24T19:02:39.904Z,14.89
2022-11-24T19:05:43.371Z,15.37
2022-11-24T19:08:45.897Z,15.54
2022-11-24T19:11:48.059Z,15.42
2022-11-24T19:14:50.310Z,15.32
2022-11-24T19:17:52.327Z,15.38
2022-11-24T19:20:58.040Z,15.43
2022-11-24T19:24:04.975Z,15.44
2022-11-24T19:27:10.996Z,15.48
2022-11-24T19:30:13.284Z,15.49
2022-11-24T19:33:15.764Z,15.49
2022-11-24T19:36:20.573Z,15.54
2022-11-24T19:39:23.293Z,15.47
2022-11-24T19:42:27.102Z,15.35
2022-11-24T19:45:29.506Z,15.44
2022-11-24T19:53:03.555Z,15.18
2022-11-24T19:56:14.680Z,14.71
2022-11-24T19:59:20.713Z,14.68
2022-11-24T20:02:31.990Z,14.55
2022-11-24T20:05:34.342Z,14.88
2022-11-24T20:08:38.182Z,14.90
2022-11-24T20:11:41.210Z,14.99
2022-11-24T20:14:44.211Z,14.78
2022-11-24T20:17:46.770Z,14.95
2022-11-24T20:20:49.076Z,14.90
2022-11-24T20:23:55.486Z,14.93
2022-11-24T20:27:00.823Z,14.99
2022-11-24T20:30:03.425Z,14.80
2022-11-24T20:33:09.726Z,14.88
2022-11-24T20:36:14.184Z,15.07
2022-11-24T20:39:36.803Z,15.21
2022-11-24T20:42:41.412Z,15.03
2022-11-24T20:45:43.575Z,15.15
2022-11-24T20:48:46.693Z,15.04
2022-11-24T20:51:49.042Z,15.14
2022-11-24T20:54:51.154Z,14.97
2022-11-24T20:57:53.229Z,15.07
2022-11-24T21:00:55.582Z,14.89
2022-11-24T21:03:59.828Z,15.13
2022-11-24T21:07:02.111Z,14.94
2022-11-24T21:10:04.687Z,14.95
2022-11-24T21:13:07.115Z,14.85
2022-11-24T21:16:19.953Z,14.93
2022-11-24T21:19:24.179Z,14.86
2022-11-24T21:22:27.267Z,14.82
2022-11-24T21:25:30.868Z,14.84
2022-11-24T21:28:33.878Z,14.85
2022-11-24T21:31:39.735Z,14.73
2022-11-24T21:34:42.276Z,14.55
2022-11-24T21:37:44.571Z,14.34
2022-11-24T21:40:50.297Z,14.52
2022-11-24T21:43:55.611Z,14.49
2022-11-24T21:47:01.479Z,14.56
2022-11-24T21:50:09.187Z,14.47
2022-11-24T21:53:11.810Z,14.50
2022-11-24T21:56:18.175Z,14.45
2022-11-24T21:59:22.609Z,14.47
2022-11-24T22:02:26.454Z,14.38
2022-11-24T22:05:44.112Z,14.50
2022-11-24T22:08:49.095Z,14.48
2022-11-24T22:11:54.138Z,14.33
2022-11-24T22:14:56.568Z,14.17
2022-11-24T22:17:58.679Z,14.02
2022-11-24T22:21:03.026Z,13.98
2022-11-24T22:24:05.385Z,14.03
2022-11-24T22:27:07.572Z,13.79
2022-11-24T22:30:10.781Z,13.84
2022-11-24T22:33:14.034Z,13.77
2022-11-24T22:36:18.804Z,13.88
2022-11-24T22:39:20.803Z,13.91
2022-11-24T22:42:23.002Z,13.89
2022-11-24T22:45:25.094Z,13.99
2022-11-24T22:48:29.114Z,13.88
2022-11-24T22:51:34.203Z,13.90
2022-11-24T22:54:36.701Z,13.76
2022-11-24T22:57:39.063Z,13.82
2022-11-24T23:00:54.287Z,13.86
2022-11-24T23:04:00.996Z,13.69
2022-11-24T23:07:03.821Z,13.65
2022-11-24T23:10:06.869Z,13.64
2022-11-24T23:13:10.848Z,13.72
2022-11-24T23:16:15.691Z,13.67
2022-11-24T23:19:18.832Z,13.45
2022-11-24T23:22:21.220Z,13.51
2022-11-24T23:25:24.319Z,13.55
2022-11-24T23:28:34.712Z,13.78
2022-11-24T23:31:40.073Z,13.91
2022-11-24T23:34:43.035Z,13.78
2022-11-24T23:38:06.976Z,13.71
2022-11-24T23:41:12.819Z,13.82
2022-11-24T23:44:15.619Z,13.86
2022-11-24T23:47:18.974Z,13.69
2022-11-24T23:50:23.319Z,13.77
2022-11-24T23:53:28.805Z,13.83
2022-11-24T23:56:33.358Z,13.72
2022-11-24T23:59:35.732Z,13.60
